Time;durP1;ratioP1;P1;durP2;ratioP2;P2;SDS_P1;SDS_P2;PMS_P1;PMS_P2;Temp;Humidity;BMP_temperature;BMP_pressure;BME280_temperature;BME280_humidity;BME280_pressure;Samples;Min_cycle;Max_cycle;Signal;HPM_P1;HPM_P2
2021/01/18 00:00:09;;;;;;;1.98;1.02;;;20.60;50.00;;;;;;4986621;28;20112;-70
2021/01/18 00:02:34;;;;;;;1.77;1.10;;;20.60;50.10;;;;;;4987054;28;20380;-70
2021/01/18 00:05:00;;;;;;;2.00;1.10;;;20.60;50.10;;;;;;4985052;28;20117;-70
2021/01/18 00:07:25;;;;;;;2.10;1.15;;;20.60;50.00;;;;;;4984876;28;20033;-70
2021/01/18 00:09:51;;;;;;;2.00;1.08;;;20.60;50.00;;;;;;4983535;28;20042;-70
2021/01/18 00:12:17;;;;;;;1.60;1.02;;;20.60;50.00;;;;;;4988106;28;20109;-71
2021/01/18 00:14:43;;;;;;;2.72;1.13;;;20.60;50.00;;;;;;4987789;28;20526;-70
2021/01/18 00:17:09;;;;;;;1.70;1.13;;;20.50;50.00;;;;;;4988699;28;20489;-70
2021/01/18 00:19:34;;;;;;;1.85;1.10;;;20.50;50.00;;;;;;4985217;28;20030;-70
2021/01/18 00:22:00;;;;;;;1.98;1.05;;;20.50;50.00;;;;;;4987662;28;20026;-70
2021/01/18 00:24:25;;;;;;;1.70;1.05;;;20.50;50.00;;;;;;4988872;28;20537;-71
2021/01/18 00:26:51;;;;;;;2.33;1.00;;;20.50;50.00;;;;;;4989239;28;20101;-70
2021/01/18 00:29:17;;;;;;;1.85;1.02;;;20.50;50.00;;;;;;4987098;28;20458;-70
2021/01/18 00:31:44;;;;;;;2.28;1.13;;;20.50;50.00;;;;;;4987746;28;20035;-70
2021/01/18 00:34:09;;;;;;;2.28;1.08;;;20.50;50.00;;;;;;5001951;28;20027;-70
2021/01/18 00:36:35;;;;;;;1.60;1.08;;;20.50;50.00;;;;;;4987611;28;20093;-71
2021/01/18 00:39:01;;;;;;;1.52;1.00;;;20.50;50.00;;;;;;4987667;28;20109;-70
2021/01/18 00:41:26;;;;;;;4.10;1.20;;;20.50;50.00;;;;;;4987513;28;20066;-70
2021/01/18 00:43:52;;;;;;;1.55;0.90;;;20.50;50.00;;;;;;4988296;28;20260;-70
2021/01/18 00:46:18;;;;;;;1.98;1.30;;;20.50;50.00;;;;;;4988799;28;20510;-70
2021/01/18 00:48:44;;;;;;;1.50;0.90;;;20.40;49.90;;;;;;4986742;28;20121;-70
2021/01/18 00:51:09;;;;;;;1.08;0.90;;;20.50;50.00;;;;;;4985350;28;20418;-70
2021/01/18 00:53:35;;;;;;;1.33;0.98;;;20.40;49.90;;;;;;4988664;28;20430;-70
2021/01/18 00:56:01;;;;;;;1.20;0.90;;;20.40;49.90;;;;;;4988371;28;20027;-70
2021/01/18 00:58:26;;;;;;;1.45;0.90;;;20.40;49.90;;;;;;4987421;28;20053;-70
2021/01/18 01:00:52;;;;;;;1.50;0.80;;;20.40;49.90;;;;;;4986345;28;20333;-71
2021/01/18 01:03:17;;;;;;;1.65;1.00;;;20.40;49.90;;;;;;4985645;28;20319;-70
2021/01/18 01:05:43;;;;;;;1.80;1.10;;;20.40;49.90;;;;;;4981407;28;20059;-70
2021/01/18 01:08:08;;;;;;;2.00;1.00;;;20.40;49.90;;;;;;4973017;28;20092;-71
2021/01/18 01:10:35;;;;;;;1.48;1.10;;;20.40;49.90;;;;;;4977510;28;20054;-70
2021/01/18 01:13:07;;;;;;;1.80;1.25;;;20.30;49.80;;;;;;4968702;28;20027;-70
2021/01/18 01:15:34;;;;;;;2.17;1.00;;;20.30;49.80;;;;;;4983319;28;20034;-71
2021/01/18 01:18:00;;;;;;;1.73;1.00;;;20.30;49.80;;;;;;4980466;28;20037;-70
2021/01/18 01:20:26;;;;;;;0.90;0.80;;;20.40;49.90;;;;;;4969654;28;20039;-70
2021/01/18 01:22:53;;;;;;;1.10;0.80;;;20.30;49.80;;;;;;4982163;28;20027;-70
2021/01/18 01:25:20;;;;;;;2.42;1.00;;;20.30;49.80;;;;;;4988654;28;20458;-70
2021/01/18 01:27:47;;;;;;;1.67;1.05;;;20.30;49.80;;;;;;4985639;28;20030;-70
2021/01/18 01:30:21;;;;;;;1.70;1.08;;;20.30;49.80;;;;;;4986067;28;20061;-70
2021/01/18 01:32:49;;;;;;;1.73;0.93;;;20.30;49.80;;;;;;4987329;28;20030;-70
2021/01/18 01:35:20;;;;;;;1.65;1.00;;;20.30;49.80;;;;;;4972231;28;20030;-70
2021/01/18 01:37:45;;;;;;;2.83;1.00;;;20.30;49.80;;;;;;4986802;28;20096;-71
2021/01/18 01:40:14;;;;;;;1.63;0.90;;;20.30;49.80;;;;;;4974938;28;20431;-71
2021/01/18 01:42:40;;;;;;;1.65;1.00;;;20.30;49.80;;;;;;4968578;28;20089;-70
2021/01/18 01:45:07;;;;;;;1.90;1.10;;;20.20;49.80;;;;;;4984765;28;20472;-71
2021/01/18 01:47:36;;;;;;;1.48;0.90;;;20.20;49.80;;;;;;4995584;28;20042;-70
2021/01/18 01:50:05;;;;;;;1.47;1.00;;;20.20;49.80;;;;;;4979862;28;20031;-70
2021/01/18 01:52:33;;;;;;;1.92;1.00;;;20.20;49.80;;;;;;4987351;28;20031;-71
2021/01/18 01:55:02;;;;;;;1.63;0.90;;;20.20;49.80;;;;;;4987761;28;20316;-71
2021/01/18 01:57:30;;;;;;;1.60;0.90;;;20.20;49.80;;;;;;4983302;28;20038;-71
2021/01/18 01:59:57;;;;;;;1.27;0.80;;;20.20;50.30;;;;;;4975802;28;20430;-70
2021/01/18 02:02:24;;;;;;;1.35;0.90;;;20.20;49.70;;;;;;4979334;28;20042;-70
2021/01/18 02:04:50;;;;;;;1.50;0.90;;;20.20;49.80;;;;;;4984512;28;20026;-70
2021/01/18 02:07:23;;;;;;;1.60;1.08;;;20.20;49.70;;;;;;4985603;28;20034;-71
2021/01/18 02:09:49;;;;;;;1.83;1.02;;;20.20;49.80;;;;;;4983187;28;20383;-70
2021/01/18 02:12:16;;;;;;;1.42;0.90;;;20.20;49.80;;;;;;4986786;28;20053;-71
2021/01/18 02:15:12;;;;;;;1.35;0.90;;;20.10;49.70;;;;;;4983821;28;20699;-71
2021/01/18 02:17:52;;;;;;;1.10;0.90;;;20.20;49.80;;;;;;4973347;28;20202;-70
2021/01/18 02:20:46;;;;;;;1.92;0.90;;;20.20;49.80;;;;;;4970878;28;20057;-70
2021/01/18 02:23:33;;;;;;;1.70;0.90;;;20.20;49.80;;;;;;4986815;28;20113;-70
2021/01/18 02:26:18;;;;;;;1.35;0.90;;;20.10;49.80;;;;;;4986814;28;20114;-70
2021/01/18 02:29:16;;;;;;;1.40;0.80;;;20.20;49.90;;;;;;4989158;28;20022;-71
2021/01/18 02:31:58;;;;;;;1.10;0.80;;;20.10;49.80;;;;;;4984046;28;20039;-70
2021/01/18 02:34:38;;;;;;;1.90;1.00;;;20.10;49.80;;;;;;4980975;28;20026;-70
2021/01/18 02:37:23;;;;;;;1.20;0.90;;;20.10;49.80;;;;;;4990391;28;20033;-70
2021/01/18 02:40:02;;;;;;;1.30;0.80;;;20.10;49.80;;;;;;4988631;28;20562;-71
2021/01/18 02:42:30;;;;;;;1.58;0.80;;;20.10;49.80;;;;;;4990306;28;20453;-71
2021/01/18 02:44:59;;;;;;;1.60;0.90;;;20.10;49.80;;;;;;4986931;28;20033;-70
2021/01/18 02:47:29;;;;;;;1.00;0.75;;;20.10;49.80;;;;;;4988200;28;20139;-70
2021/01/18 02:49:57;;;;;;;1.35;0.80;;;20.10;49.80;;;;;;4987569;28;20026;-71
2021/01/18 02:52:23;;;;;;;1.40;0.77;;;20.10;49.80;;;;;;4988731;28;20123;-71
2021/01/18 02:54:48;;;;;;;1.30;0.90;;;20.00;49.70;;;;;;4985785;28;20042;-70
2021/01/18 02:57:16;;;;;;;1.00;0.80;;;20.00;49.70;;;;;;4978128;28;20501;-70
2021/01/18 02:59:42;;;;;;;1.10;0.80;;;20.00;49.80;;;;;;4980981;28;20072;-71
2021/01/18 03:02:26;;;;;;;1.33;0.90;;;20.00;49.70;;;;;;4991562;28;20133;-70
2021/01/18 03:05:02;;;;;;;1.40;0.80;;;20.00;49.70;;;;;;4986831;28;20049;-71
2021/01/18 03:07:30;;;;;;;0.77;0.70;;;20.00;49.80;;;;;;4972586;28;20575;-71
2021/01/18 03:10:28;;;;;;;1.13;0.80;;;20.00;49.70;;;;;;4987540;28;20022;-71
2021/01/18 03:13:04;;;;;;;1.00;0.65;;;20.00;49.70;;;;;;4980051;28;20109;-71
2021/01/18 03:15:36;;;;;;;1.13;0.75;;;20.00;49.80;;;;;;4989919;28;20041;-70
2021/01/18 03:18:03;;;;;;;0.98;0.70;;;20.00;49.80;;;;;;4985403;28;20382;-71
2021/01/18 03:20:31;;;;;;;0.68;0.68;;;20.00;49.80;;;;;;4984193;28;20833;-71
2021/01/18 03:23:08;;;;;;;1.30;0.80;;;20.00;49.80;;;;;;4988180;28;20088;-72
2021/01/18 03:25:52;;;;;;;1.25;0.80;;;20.00;49.80;;;;;;4988982;28;20037;-72
2021/01/18 03:28:18;;;;;;;1.15;0.80;;;19.90;49.80;;;;;;4969767;28;20037;-72
2021/01/18 03:30:45;;;;;;;2.55;1.00;;;19.90;49.80;;;;;;4974685;28;20050;-73
2021/01/18 03:33:11;;;;;;;1.70;0.70;;;19.90;49.80;;;;;;4986980;28;20622;-71
2021/01/18 03:35:36;;;;;;;1.65;0.85;;;19.90;49.80;;;;;;4983390;28;20162;-70
2021/01/18 03:38:02;;;;;;;1.30;0.80;;;19.90;49.80;;;;;;4978852;28;20037;-70
2021/01/18 03:40:28;;;;;;;1.17;0.80;;;19.90;49.80;;;;;;4969714;28;20057;-71
2021/01/18 03:42:56;;;;;;;1.65;0.90;;;19.90;49.80;;;;;;4984609;28;20031;-70
2021/01/18 03:45:22;;;;;;;1.08;0.73;;;19.90;49.80;;;;;;4984250;28;20066;-70
2021/01/18 03:47:48;;;;;;;1.73;0.95;;;19.90;49.80;;;;;;4987642;28;20073;-70
2021/01/18 03:50:14;;;;;;;1.52;0.88;;;19.90;49.80;;;;;;4970246;28;20058;-70
2021/01/18 03:52:39;;;;;;;1.73;0.90;;;19.90;49.80;;;;;;4971945;28;20069;-70
2021/01/18 03:55:05;;;;;;;1.33;0.90;;;19.90;49.80;;;;;;4978749;28;20446;-70
2021/01/18 03:57:31;;;;;;;0.88;0.70;;;19.90;49.80;;;;;;4974095;28;20041;-70
2021/01/18 03:59:57;;;;;;;1.23;0.80;;;19.90;49.90;;;;;;4983297;28;20805;-70
2021/01/18 04:02:22;;;;;;;0.98;0.73;;;19.90;49.80;;;;;;4985925;28;20049;-71
2021/01/18 04:04:48;;;;;;;1.08;0.75;;;19.90;49.80;;;;;;4980169;28;20445;-70
2021/01/18 04:07:13;;;;;;;1.13;0.80;;;19.90;49.80;;;;;;4986096;28;20041;-70
2021/01/18 04:09:39;;;;;;;1.00;0.75;;;19.90;49.90;;;;;;4979126;28;20074;-70
2021/01/18 04:12:05;;;;;;;1.08;0.70;;;19.90;49.90;;;;;;4979030;28;20031;-70
2021/01/18 04:14:31;;;;;;;0.98;0.80;;;19.90;49.90;;;;;;4988273;28;20105;-70
2021/01/18 04:16:57;;;;;;;1.00;0.75;;;19.90;49.90;;;;;;4986119;28;20034;-70
2021/01/18 04:19:23;;;;;;;1.70;0.90;;;19.80;49.80;;;;;;4981467;28;20046;-70
2021/01/18 04:21:48;;;;;;;0.90;0.70;;;19.90;49.90;;;;;;4970193;28;20370;-70
2021/01/18 04:24:14;;;;;;;1.10;0.80;;;19.90;49.90;;;;;;4988441;28;20065;-70
2021/01/18 04:26:39;;;;;;;1.45;0.80;;;19.90;49.90;;;;;;4987466;28;20030;-70
2021/01/18 04:29:05;;;;;;;1.50;0.80;;;19.90;49.90;;;;;;4980586;28;20039;-70
2021/01/18 04:31:31;;;;;;;1.30;0.82;;;19.80;49.80;;;;;;4968208;28;20462;-70
2021/01/18 04:33:56;;;;;;;1.17;0.80;;;19.90;49.90;;;;;;4982771;28;20062;-70
2021/01/18 04:36:22;;;;;;;1.30;0.88;;;19.80;49.80;;;;;;4987377;28;20033;-70
2021/01/18 04:38:50;;;;;;;1.70;0.90;;;19.80;49.80;;;;;;4984489;28;20030;-70
2021/01/18 04:41:15;;;;;;;2.05;0.90;;;19.90;49.90;;;;;;4985194;28;20493;-70
2021/01/18 04:43:43;;;;;;;1.15;0.90;;;19.90;49.90;;;;;;4987844;28;20026;-70
2021/01/18 04:46:12;;;;;;;1.17;0.70;;;19.80;49.80;;;;;;4986331;28;20673;-70
2021/01/18 04:48:38;;;;;;;0.90;0.73;;;19.90;49.90;;;;;;4981073;28;20091;-70
2021/01/18 04:51:13;;;;;;;1.33;0.80;;;19.80;49.80;;;;;;4985599;28;20389;-70
2021/01/18 04:53:46;;;;;;;1.02;0.75;;;19.80;49.90;;;;;;4986402;28;20030;-69
2021/01/18 04:56:36;;;;;;;1.08;0.70;;;19.80;49.80;;;;;;4988834;28;20092;-70
2021/01/18 04:59:03;;;;;;;0.82;0.60;;;19.80;49.80;;;;;;4979138;28;20056;-70
2021/01/18 05:01:32;;;;;;;1.08;0.80;;;19.90;50.40;;;;;;4979172;28;20130;-70
2021/01/18 05:04:04;;;;;;;0.98;0.70;;;19.80;49.80;;;;;;4978869;28;20454;-69
2021/01/18 05:06:46;;;;;;;1.02;0.75;;;19.80;49.80;;;;;;4978158;28;20129;-70
2021/01/18 05:09:19;;;;;;;0.82;0.70;;;19.80;49.80;;;;;;4981810;28;20114;-70
2021/01/18 05:11:48;;;;;;;1.17;0.70;;;19.80;49.80;;;;;;4988463;28;20054;-70
2021/01/18 05:14:16;;;;;;;0.77;0.60;;;19.80;49.80;;;;;;4987484;28;20031;-70
2021/01/18 05:16:54;;;;;;;0.90;0.70;;;19.80;49.80;;;;;;4985809;28;20061;-70
2021/01/18 05:19:20;;;;;;;1.70;0.70;;;19.80;49.80;;;;;;4985380;28;20157;-70
2021/01/18 05:21:47;;;;;;;0.82;0.60;;;19.80;49.80;;;;;;4987936;28;20089;-70
2021/01/18 05:24:14;;;;;;;0.80;0.60;;;19.80;49.80;;;;;;4986541;28;20030;-70
2021/01/18 05:26:40;;;;;;;1.83;0.52;;;19.80;49.80;;;;;;4986288;28;20030;-70
2021/01/18 05:29:07;;;;;;;1.05;0.60;;;19.80;49.80;;;;;;4979666;28;20053;-70
2021/01/18 05:31:34;;;;;;;1.33;0.75;;;19.80;49.80;;;;;;4974566;28;20067;-70
2021/01/18 05:34:10;;;;;;;0.93;0.68;;;19.80;49.80;;;;;;4967952;28;20461;-70
2021/01/18 05:36:49;;;;;;;0.75;0.63;;;19.80;49.80;;;;;;4985604;28;20030;-71
2021/01/18 05:39:18;;;;;;;0.80;0.60;;;19.80;49.80;;;;;;4983481;28;20094;-70
2021/01/18 05:41:46;;;;;;;0.85;0.70;;;19.80;49.80;;;;;;4986152;28;20042;-70
2021/01/18 05:44:12;;;;;;;0.95;0.73;;;19.80;49.80;;;;;;4983165;28;20093;-70
2021/01/18 05:46:40;;;;;;;0.70;0.60;;;19.80;49.90;;;;;;4997429;28;20042;-70
2021/01/18 05:49:12;;;;;;;1.20;0.80;;;19.80;49.80;;;;;;4978043;28;20129;-71
2021/01/18 05:51:38;;;;;;;0.77;0.70;;;19.90;49.90;;;;;;4966811;28;20039;-70
2021/01/18 05:54:06;;;;;;;1.15;0.70;;;19.80;49.80;;;;;;4973531;28;20042;-70
2021/01/18 05:56:41;;;;;;;1.13;0.80;;;19.80;49.70;;;;;;4983073;28;20026;-70
2021/01/18 05:59:16;;;;;;;0.77;0.70;;;19.80;49.70;;;;;;4976999;28;20248;-71
2021/01/18 06:01:42;;;;;;;1.90;0.70;;;19.80;49.70;;;;;;4967334;28;20434;-70
2021/01/18 06:04:13;;;;;;;2.38;0.88;;;19.80;49.70;;;;;;4967749;28;20537;-71
2021/01/18 06:06:41;;;;;;;1.67;0.80;;;19.80;49.70;;;;;;4987040;28;20041;-70
2021/01/18 06:09:06;;;;;;;1.25;0.80;;;19.80;49.70;;;;;;4985661;28;20030;-69
2021/01/18 06:11:32;;;;;;;0.70;0.52;;;19.80;49.70;;;;;;4988191;28;20508;-70
2021/01/18 06:14:03;;;;;;;0.95;0.68;;;19.80;49.70;;;;;;4983874;28;20480;-70
2021/01/18 06:16:30;;;;;;;0.80;0.70;;;19.80;49.70;;;;;;4987547;28;20033;-68
2021/01/18 06:19:08;;;;;;;0.73;0.60;;;19.80;49.70;;;;;;4985492;28;20033;-68
2021/01/18 06:21:38;;;;;;;1.38;0.60;;;19.80;49.80;;;;;;4979973;28;20137;-70
2021/01/18 06:24:27;;;;;;;1.25;0.70;;;19.80;50.00;;;;;;4991521;28;20137;-69
2021/01/18 06:26:53;;;;;;;0.95;0.70;;;19.80;49.80;;;;;;4986840;28;20034;-69
2021/01/18 06:29:38;;;;;;;1.48;0.60;;;19.80;49.70;;;;;;4987101;28;20373;-69
2021/01/18 06:32:06;;;;;;;2.22;0.75;;;19.80;49.60;;;;;;4988740;28;20046;-70
2021/01/18 06:34:31;;;;;;;1.02;0.70;;;19.80;49.50;;;;;;4988797;28;20030;-69
2021/01/18 06:36:58;;;;;;;1.70;0.70;;;19.80;49.50;;;;;;4990763;28;20035;-68
2021/01/18 06:39:25;;;;;;;1.25;0.70;;;19.80;49.40;;;;;;4985910;28;20038;-69
2021/01/18 06:41:56;;;;;;;1.48;0.85;;;19.90;49.40;;;;;;4986766;28;20500;-68
2021/01/18 06:44:33;;;;;;;1.63;1.00;;;19.90;50.60;;;;;;4995952;28;20034;-68
2021/01/18 06:46:58;;;;;;;2.15;0.90;;;20.10;51.50;;;;;;4977605;28;20030;-69
2021/01/18 06:49:25;;;;;;;1.77;0.95;;;20.40;51.50;;;;;;4978455;28;20031;-72
2021/01/18 06:51:56;;;;;;;1.52;0.80;;;20.60;50.80;;;;;;4985999;28;20019;-68
2021/01/18 06:54:26;;;;;;;2.53;0.93;;;20.80;50.70;;;;;;4987038;28;20034;-70
2021/01/18 06:57:28;;;;;;;1.00;0.70;;;21.00;50.60;;;;;;4974249;28;20026;-70
2021/01/18 07:00:00;;;;;;;1.40;0.80;;;21.20;50.30;;;;;;4942283;28;20047;-69
2021/01/18 07:02:27;;;;;;;1.23;0.80;;;21.40;50.20;;;;;;4974229;28;20061;-69
2021/01/18 07:05:07;;;;;;;0.52;0.50;;;21.60;50.10;;;;;;4971527;28;20049;-69
2021/01/18 07:07:35;;;;;;;0.95;0.65;;;21.70;50.10;;;;;;4986757;28;20548;-70
2021/01/18 07:10:05;;;;;;;0.85;0.68;;;21.90;49.90;;;;;;4982008;28;20209;-70
2021/01/18 07:12:31;;;;;;;0.55;0.43;;;21.90;49.60;;;;;;4986193;28;20564;-70
2021/01/18 07:15:02;;;;;;;2.03;0.60;;;21.90;49.60;;;;;;4987731;28;20026;-69
2021/01/18 07:17:43;;;;;;;0.50;0.50;;;21.80;49.70;;;;;;4986846;28;20026;-68
2021/01/18 07:20:29;;;;;;;0.40;0.40;;;21.70;50.00;;;;;;4972798;28;20031;-69
2021/01/18 07:23:15;;;;;;;1.10;0.60;;;21.70;50.20;;;;;;4968851;28;20035;-68
2021/01/18 07:25:51;;;;;;;0.90;0.68;;;21.70;50.40;;;;;;4988087;28;20018;-68
2021/01/18 07:28:20;;;;;;;0.63;0.57;;;21.70;51.00;;;;;;4974571;28;20497;-69
2021/01/18 07:30:49;;;;;;;1.10;0.60;;;21.90;50.40;;;;;;4967256;28;20377;-71
2021/01/18 07:33:18;;;;;;;0.52;0.43;;;21.90;50.20;;;;;;4972613;28;20026;-72
2021/01/18 07:35:45;;;;;;;0.80;0.47;;;21.90;50.30;;;;;;4985728;28;20019;-70
2021/01/18 07:38:16;;;;;;;0.60;0.40;;;21.90;50.40;;;;;;4984604;28;20264;-70
2021/01/18 07:41:08;;;;;;;0.73;0.60;;;21.90;50.50;;;;;;4968250;28;20205;-70
2021/01/18 07:43:34;;;;;;;0.50;0.50;;;22.10;50.80;;;;;;4984847;28;20129;-69
2021/01/18 07:46:25;;;;;;;0.50;0.50;;;22.20;50.40;;;;;;4979030;28;20069;-69
2021/01/18 07:49:14;;;;;;;0.85;0.50;;;22.20;50.40;;;;;;4968071;28;20503;-70
2021/01/18 07:51:39;;;;;;;1.03;0.53;;;22.20;50.50;;;;;;4963567;28;20443;-70
2021/01/18 07:54:05;;;;;;;0.40;0.40;;;22.20;50.60;;;;;;4962529;28;612549;-69
2021/01/18 07:56:32;;;;;;;0.50;0.50;;;22.20;51.00;;;;;;4984764;28;20030;-70
2021/01/18 07:58:59;;;;;;;0.50;0.40;;;22.40;50.90;;;;;;4971578;28;20108;-69
2021/01/18 08:01:29;;;;;;;0.70;0.50;;;22.50;50.30;;;;;;4970096;28;20528;-69
2021/01/18 08:04:22;;;;;;;0.50;0.50;;;22.40;50.40;;;;;;4972573;28;20053;-70
2021/01/18 08:07:09;;;;;;;0.47;0.43;;;22.40;50.40;;;;;;4985466;28;20030;-70
2021/01/18 08:09:36;;;;;;;0.45;0.45;;;22.40;50.60;;;;;;4979319;28;20081;-68
2021/01/18 08:12:31;;;;;;;0.80;0.63;;;22.40;50.10;;;;;;4980688;28;20109;-69
2021/01/18 08:15:04;;;;;;;1.02;0.82;;;22.40;48.30;;;;;;4983934;28;20030;-68
2021/01/18 08:17:29;;;;;;;0.90;0.70;;;22.30;47.80;;;;;;4986725;28;20080;-68
2021/01/18 08:20:16;;;;;;;0.85;0.73;;;22.30;47.50;;;;;;4983802;28;20026;-68
2021/01/18 08:22:42;;;;;;;1.20;0.70;;;22.30;47.30;;;;;;4985163;28;20027;-69
2021/01/18 08:25:09;;;;;;;1.25;0.70;;;22.20;47.50;;;;;;4987114;28;20045;-69
2021/01/18 08:27:38;;;;;;;0.82;0.68;;;22.20;47.50;;;;;;4987368;28;20572;-68
2021/01/18 08:30:16;;;;;;;0.70;0.60;;;22.20;47.60;;;;;;4977669;28;20035;-69
2021/01/18 08:32:51;;;;;;;0.70;0.47;;;22.20;47.50;;;;;;4975699;28;20030;-68
2021/01/18 08:35:20;;;;;;;1.10;0.57;;;22.20;47.60;;;;;;4986349;28;20057;-68
2021/01/18 08:38:27;;;;;;;1.17;0.60;;;22.20;47.50;;;;;;4986687;28;20081;-69
2021/01/18 08:41:02;;;;;;;1.38;0.57;;;22.10;47.50;;;;;;4969812;28;20949;-69
2021/01/18 08:43:46;;;;;;;1.17;0.70;;;22.20;47.70;;;;;;4984351;28;20125;-69
2021/01/18 08:46:31;;;;;;;1.08;0.63;;;22.20;47.40;;;;;;4973446;28;20027;-69
2021/01/18 08:49:31;;;;;;;1.50;0.60;;;22.20;47.40;;;;;;4970414;28;20030;-68
2021/01/18 08:51:58;;;;;;;1.15;0.70;;;22.20;47.40;;;;;;4968148;28;20373;-69
2021/01/18 08:54:37;;;;;;;0.77;0.68;;;22.20;47.60;;;;;;4983832;28;20176;-69
2021/01/18 08:57:38;;;;;;;1.20;0.50;;;22.20;47.70;;;;;;4974838;28;20038;-69
2021/01/18 09:00:05;;;;;;;0.63;0.50;;;22.20;47.80;;;;;;4969096;28;20073;-69
2021/01/18 09:02:31;;;;;;;2.08;0.57;;;22.20;47.80;;;;;;4982361;28;20034;-70
2021/01/18 09:05:21;;;;;;;0.63;0.60;;;22.20;47.70;;;;;;4985590;28;20030;-69
2021/01/18 09:07:47;;;;;;;0.75;0.52;;;22.20;47.60;;;;;;4985770;28;20057;-69
2021/01/18 09:10:18;;;;;;;1.10;0.70;;;22.20;47.80;;;;;;4977364;28;20030;-68
2021/01/18 09:12:45;;;;;;;0.70;0.60;;;22.20;48.00;;;;;;4983112;28;20034;-69
2021/01/18 09:15:11;;;;;;;1.65;0.75;;;22.20;48.00;;;;;;4985327;28;20462;-69
2021/01/18 09:17:37;;;;;;;1.60;1.00;;;22.20;47.80;;;;;;4970884;28;20030;-69
2021/01/18 09:20:05;;;;;;;6.00;4.95;;;22.10;41.50;;;;;;4982285;28;20019;-70
2021/01/18 09:22:33;;;;;;;4.80;3.13;;;21.90;39.90;;;;;;4979727;28;20062;-69
2021/01/18 09:24:58;;;;;;;3.63;2.40;;;21.70;38.50;;;;;;4985396;28;20103;-69
2021/01/18 09:27:24;;;;;;;4.15;2.05;;;21.50;37.40;;;;;;4980125;28;20038;-70
2021/01/18 09:30:11;;;;;;;2.35;1.40;;;21.40;41.00;;;;;;4966735;28;20082;-70
2021/01/18 09:32:38;;;;;;;3.30;1.80;;;21.50;42.20;;;;;;4969481;28;20145;-70
2021/01/18 09:35:06;;;;;;;2.05;1.38;;;21.60;43.30;;;;;;4985094;28;20481;-70
2021/01/18 09:37:32;;;;;;;2.73;1.40;;;21.70;44.10;;;;;;4983793;28;20454;-71
2021/01/18 09:39:57;;;;;;;2.60;1.50;;;21.80;44.70;;;;;;4972032;28;20041;-71
2021/01/18 09:42:25;;;;;;;2.40;1.50;;;21.80;45.30;;;;;;4984914;28;20179;-71
2021/01/18 09:44:51;;;;;;;2.70;1.52;;;21.90;45.80;;;;;;4979323;28;20583;-72
2021/01/18 09:47:18;;;;;;;2.13;1.38;;;21.90;46.10;;;;;;4967876;28;20039;-71
2021/01/18 09:49:44;;;;;;;2.78;1.70;;;22.00;46.50;;;;;;4966023;28;20486;-70
2021/01/18 09:52:10;;;;;;;3.08;1.42;;;22.10;46.90;;;;;;4975378;28;20077;-70
2021/01/18 09:54:39;;;;;;;1.90;1.20;;;22.10;47.10;;;;;;4978972;28;20030;-70
2021/01/18 09:57:14;;;;;;;1.42;1.15;;;22.10;47.30;;;;;;4984645;28;20389;-71
2021/01/18 09:59:42;;;;;;;2.72;1.40;;;22.20;47.50;;;;;;4980529;28;20392;-70
2021/01/18 10:02:12;;;;;;;2.70;1.40;;;22.20;47.70;;;;;;4971560;28;20045;-70
2021/01/18 10:04:39;;;;;;;1.92;1.40;;;22.20;47.80;;;;;;4966562;28;20454;-70
2021/01/18 10:07:09;;;;;;;1.98;1.30;;;22.20;47.90;;;;;;4986602;28;20085;-70
2021/01/18 10:09:36;;;;;;;1.83;1.20;;;22.20;48.10;;;;;;4974232;28;20054;-70
2021/01/18 10:12:04;;;;;;;1.85;1.17;;;22.30;48.30;;;;;;4984490;28;20041;-70
2021/01/18 10:14:30;;;;;;;1.73;1.15;;;22.30;48.30;;;;;;4982733;28;20022;-71
2021/01/18 10:17:05;;;;;;;1.40;1.08;;;22.30;48.40;;;;;;4983508;28;20072;-69
2021/01/18 10:19:33;;;;;;;1.30;1.00;;;22.30;48.50;;;;;;4987399;28;20033;-69
2021/01/18 10:22:01;;;;;;;1.80;1.30;;;22.40;48.60;;;;;;4985592;28;20034;-71
2021/01/18 10:24:31;;;;;;;1.20;1.00;;;22.40;48.70;;;;;;4986246;28;20113;-70
2021/01/18 10:27:12;;;;;;;1.75;1.20;;;22.40;48.80;;;;;;4972678;28;20389;-70
2021/01/18 10:29:38;;;;;;;1.10;0.90;;;22.40;48.80;;;;;;4970877;28;20043;-69
2021/01/18 10:32:05;;;;;;;1.48;1.10;;;22.50;49.00;;;;;;4972459;28;20039;-68
2021/01/18 10:34:34;;;;;;;1.25;1.00;;;22.50;49.10;;;;;;4981646;28;20420;-70
2021/01/18 10:37:12;;;;;;;1.30;1.00;;;22.50;49.10;;;;;;4986112;28;20019;-71
2021/01/18 10:39:42;;;;;;;1.70;1.20;;;22.50;49.30;;;;;;4981130;28;20053;-70
2021/01/18 10:42:16;;;;;;;1.55;1.02;;;22.50;49.30;;;;;;4977802;28;20445;-68
2021/01/18 10:44:54;;;;;;;1.30;1.00;;;22.60;49.50;;;;;;4975422;28;20166;-71
2021/01/18 10:47:28;;;;;;;1.30;1.00;;;22.70;50.00;;;;;;4968817;28;20791;-71
2021/01/18 10:50:01;;;;;;;1.58;1.00;;;22.70;50.00;;;;;;4983239;28;20046;-71
2021/01/18 10:52:42;;;;;;;1.05;0.90;;;22.70;50.00;;;;;;4987616;28;20027;-68
2021/01/18 10:55:12;;;;;;;1.42;0.90;;;22.70;50.00;;;;;;4975550;28;20033;-70
2021/01/18 10:57:40;;;;;;;1.63;1.20;;;22.80;50.00;;;;;;4996804;28;20049;-70
2021/01/18 11:00:10;;;;;;;1.73;1.00;;;22.80;50.10;;;;;;4984244;28;20026;-67
2021/01/18 11:02:41;;;;;;;1.05;0.95;;;22.80;50.10;;;;;;4987642;28;20026;-70
2021/01/18 11:05:09;;;;;;;1.05;0.90;;;22.90;50.10;;;;;;4976523;28;20469;-72
2021/01/18 11:07:36;;;;;;;2.25;0.90;;;22.90;50.20;;;;;;4988739;28;20070;-69
2021/01/18 11:10:03;;;;;;;2.13;1.10;;;22.90;50.30;;;;;;4993934;28;20197;-69
2021/01/18 11:12:33;;;;;;;1.15;0.90;;;22.90;49.00;;;;;;4984967;28;20034;-71
2021/01/18 11:15:00;;;;;;;1.17;0.70;;;22.90;48.20;;;;;;4982941;28;20039;-70
2021/01/18 11:17:28;;;;;;;1.20;0.80;;;22.80;47.70;;;;;;5000859;28;20563;-70
2021/01/18 11:19:53;;;;;;;1.20;0.80;;;22.80;47.30;;;;;;4977951;28;20042;-72
2021/01/18 11:22:19;;;;;;;1.02;0.80;;;22.80;47.10;;;;;;4992745;28;20089;-71
2021/01/18 11:24:44;;;;;;;2.83;0.85;;;22.80;47.00;;;;;;5005694;28;20058;-69
2021/01/18 11:27:10;;;;;;;0.95;0.75;;;22.80;47.00;;;;;;4988230;28;20058;-69
2021/01/18 11:29:35;;;;;;;0.82;0.70;;;22.80;46.90;;;;;;4982780;28;20031;-69
2021/01/18 11:32:01;;;;;;;0.82;0.70;;;22.80;46.80;;;;;;4981544;28;20058;-70
2021/01/18 11:34:27;;;;;;;1.17;0.77;;;22.80;46.90;;;;;;4985563;28;20068;-69
2021/01/18 11:36:52;;;;;;;1.27;0.75;;;22.70;46.80;;;;;;4978190;28;20110;-70
2021/01/18 11:39:18;;;;;;;1.30;0.93;;;22.70;46.80;;;;;;4982496;28;20041;-64
2021/01/18 11:41:43;;;;;;;0.98;0.70;;;22.70;46.80;;;;;;4978048;28;20041;-71
2021/01/18 11:44:09;;;;;;;0.80;0.70;;;22.70;46.80;;;;;;4984501;28;20031;-72
2021/01/18 11:46:35;;;;;;;1.15;0.80;;;22.70;46.70;;;;;;4986779;28;20057;-72
2021/01/18 11:49:01;;;;;;;1.15;0.77;;;22.70;46.60;;;;;;4982432;28;20061;-71
2021/01/18 11:51:27;;;;;;;1.42;0.90;;;22.70;46.50;;;;;;4981376;28;20023;-71
2021/01/18 11:53:52;;;;;;;1.23;0.80;;;22.70;46.50;;;;;;4973622;28;20034;-69
2021/01/18 11:56:18;;;;;;;1.38;0.90;;;22.70;46.50;;;;;;4987452;28;20034;-69
2021/01/18 11:58:44;;;;;;;1.27;0.77;;;22.70;46.60;;;;;;4981041;28;20121;-71
2021/01/18 12:01:10;;;;;;;1.52;0.90;;;22.70;46.50;;;;;;4976005;28;20038;-71
2021/01/18 12:03:36;;;;;;;1.20;0.80;;;22.70;46.50;;;;;;4973673;28;20061;-71
2021/01/18 12:06:02;;;;;;;1.25;0.80;;;22.70;46.50;;;;;;4984468;28;20444;-72
2021/01/18 12:08:28;;;;;;;1.38;0.85;;;22.70;46.50;;;;;;4975956;28;20096;-71
2021/01/18 12:10:53;;;;;;;1.23;0.82;;;22.70;46.50;;;;;;4982183;28;20440;-71
2021/01/18 12:13:19;;;;;;;1.38;0.80;;;22.70;46.50;;;;;;4981294;28;20020;-71
2021/01/18 12:15:45;;;;;;;0.95;0.70;;;22.70;46.60;;;;;;4979603;28;20669;-73
2021/01/18 12:18:10;;;;;;;1.10;0.80;;;22.70;46.50;;;;;;4979214;28;20026;-72
2021/01/18 12:20:37;;;;;;;1.25;0.90;;;22.70;46.60;;;;;;4980274;28;20034;-73
2021/01/18 12:23:03;;;;;;;1.02;0.80;;;22.70;46.70;;;;;;4979744;28;20101;-71
2021/01/18 12:25:29;;;;;;;1.40;0.80;;;22.70;46.60;;;;;;4983390;28;20030;-72
2021/01/18 12:27:57;;;;;;;1.70;0.80;;;22.70;46.60;;;;;;4984814;28;20030;-72
2021/01/18 12:30:24;;;;;;;1.13;0.70;;;22.70;46.60;;;;;;4976036;28;20073;-70
2021/01/18 12:32:50;;;;;;;1.35;0.90;;;22.70;46.60;;;;;;4984785;28;20281;-69
2021/01/18 12:35:16;;;;;;;1.60;0.90;;;22.70;46.70;;;;;;4983917;28;20508;-70
2021/01/18 12:37:42;;;;;;;2.00;0.80;;;22.60;46.70;;;;;;4987377;28;20019;-70
2021/01/18 12:40:09;;;;;;;0.88;0.80;;;22.60;46.70;;;;;;4982184;28;20026;-72
2021/01/18 12:42:41;;;;;;;3.33;0.70;;;22.60;46.70;;;;;;4982700;28;20093;-69
2021/01/18 12:45:08;;;;;;;1.00;0.80;;;22.60;46.70;;;;;;4980102;28;20041;-70
2021/01/18 12:47:34;;;;;;;1.42;0.80;;;22.60;46.70;;;;;;4981075;28;20400;-70
2021/01/18 12:49:59;;;;;;;1.40;0.90;;;22.60;46.70;;;;;;4978652;28;20037;-71
2021/01/18 12:52:25;;;;;;;1.77;0.90;;;22.60;46.70;;;;;;4977128;28;20540;-69
2021/01/18 12:54:50;;;;;;;1.33;0.70;;;22.60;46.70;;;;;;4979848;28;20027;-68
2021/01/18 12:57:16;;;;;;;1.50;0.80;;;22.60;46.70;;;;;;4985988;28;20115;-70
2021/01/18 12:59:42;;;;;;;0.88;0.70;;;22.60;46.70;;;;;;4993405;28;20104;-71
2021/01/18 13:02:07;;;;;;;1.42;0.82;;;22.60;46.70;;;;;;4985021;28;20042;-72